sensor_id;sensor_type;location;lat;lon;timestamp;P1;durP1;ratioP1;P2;durP2;ratioP2
10031;SDS011;5056;44.272;19.892;2023-02-28T00:00:00;203.80;;;112.77;;
10031;SDS011;5056;44.272;19.892;2023-02-28T00:02:33;183.33;;;107.73;;
10031;SDS011;5056;44.272;19.892;2023-02-28T00:05:00;199.90;;;112.73;;
10031;SDS011;5056;44.272;19.892;2023-02-28T00:07:28;199.63;;;114.77;;
10031;SDS011;5056;44.272;19.892;2023-02-28T00:09:55;202.63;;;114.17;;
10031;SDS011;5056;44.272;19.892;2023-02-28T00:12:22;207.67;;;114.90;;
10031;SDS011;5056;44.272;19.892;2023-02-28T00:14:50;206.50;;;116.93;;
10031;SDS011;5056;44.272;19.892;2023-02-28T00:17:17;216.20;;;116.53;;
10031;SDS011;5056;44.272;19.892;2023-02-28T00:20:01;189.87;;;107.73;;
10031;SDS011;5056;44.272;19.892;2023-02-28T00:22:33;191.37;;;107.07;;
10031;SDS011;5056;44.272;19.892;2023-02-28T00:25:01;197.73;;;113.43;;
10031;SDS011;5056;44.272;19.892;2023-02-28T00:27:31;207.20;;;116.70;;
10031;SDS011;5056;44.272;19.892;2023-02-28T00:30:00;213.67;;;118.90;;
10031;SDS011;5056;44.272;19.892;2023-02-28T00:32:27;226.60;;;127.47;;
10031;SDS011;5056;44.272;19.892;2023-02-28T00:34:54;228.17;;;125.47;;
10031;SDS011;5056;44.272;19.892;2023-02-28T00:37:24;217.93;;;121.77;;
10031;SDS011;5056;44.272;19.892;2023-02-28T00:39:51;238.83;;;128.17;;
10031;SDS011;5056;44.272;19.892;2023-02-28T00:42:17;233.27;;;125.63;;
10031;SDS011;5056;44.272;19.892;2023-02-28T00:44:44;216.27;;;119.23;;
10031;SDS011;5056;44.272;19.892;2023-02-28T00:47:14;196.90;;;109.10;;
10031;SDS011;5056;44.272;19.892;2023-02-28T00:49:41;175.90;;;94.57;;
10031;SDS011;5056;44.272;19.892;2023-02-28T00:52:08;152.97;;;78.80;;
10031;SDS011;5056;44.272;19.892;2023-02-28T00:54:35;133.53;;;75.67;;
10031;SDS011;5056;44.272;19.892;2023-02-28T00:57:02;139.60;;;75.77;;
10031;SDS011;5056;44.272;19.892;2023-02-28T00:59:42;154.83;;;83.27;;
10031;SDS011;5056;44.272;19.892;2023-02-28T01:02:11;136.97;;;73.03;;
10031;SDS011;5056;44.272;19.892;2023-02-28T01:04:40;113.90;;;65.60;;
10031;SDS011;5056;44.272;19.892;2023-02-28T01:07:06;118.50;;;62.27;;
10031;SDS011;5056;44.272;19.892;2023-02-28T01:09:34;110.23;;;59.23;;
10031;SDS011;5056;44.272;19.892;2023-02-28T01:12:01;107.60;;;59.20;;
10031;SDS011;5056;44.272;19.892;2023-02-28T01:14:28;98.47;;;54.43;;
10031;SDS011;5056;44.272;19.892;2023-02-28T01:16:55;91.87;;;54.13;;
10031;SDS011;5056;44.272;19.892;2023-02-28T01:19:25;92.27;;;55.23;;
10031;SDS011;5056;44.272;19.892;2023-02-28T01:21:53;97.13;;;56.17;;
10031;SDS011;5056;44.272;19.892;2023-02-28T01:24:22;96.03;;;55.63;;
10031;SDS011;5056;44.272;19.892;2023-02-28T01:26:49;95.40;;;57.20;;
10031;SDS011;5056;44.272;19.892;2023-02-28T01:29:15;93.10;;;54.07;;
10031;SDS011;5056;44.272;19.892;2023-02-28T01:31:43;95.83;;;56.07;;
10031;SDS011;5056;44.272;19.892;2023-02-28T01:34:10;93.77;;;56.27;;
10031;SDS011;5056;44.272;19.892;2023-02-28T01:36:37;106.30;;;62.67;;
10031;SDS011;5056;44.272;19.892;2023-02-28T01:39:06;110.03;;;61.60;;
10031;SDS011;5056;44.272;19.892;2023-02-28T01:41:34;105.87;;;61.23;;
10031;SDS011;5056;44.272;19.892;2023-02-28T01:44:02;96.87;;;56.13;;
10031;SDS011;5056;44.272;19.892;2023-02-28T01:46:30;100.63;;;55.97;;
10031;SDS011;5056;44.272;19.892;2023-02-28T01:48:59;92.33;;;54.93;;
10031;SDS011;5056;44.272;19.892;2023-02-28T01:51:30;97.53;;;55.30;;
10031;SDS011;5056;44.272;19.892;2023-02-28T01:54:01;86.20;;;51.77;;
10031;SDS011;5056;44.272;19.892;2023-02-28T01:56:32;98.33;;;53.50;;
10031;SDS011;5056;44.272;19.892;2023-02-28T01:59:00;91.63;;;51.53;;
10031;SDS011;5056;44.272;19.892;2023-02-28T02:01:27;92.83;;;53.60;;
10031;SDS011;5056;44.272;19.892;2023-02-28T02:03:59;94.97;;;54.63;;
10031;SDS011;5056;44.272;19.892;2023-02-28T02:06:46;84.60;;;52.10;;
10031;SDS011;5056;44.272;19.892;2023-02-28T02:09:14;82.83;;;48.43;;
10031;SDS011;5056;44.272;19.892;2023-02-28T02:11:43;81.00;;;46.87;;
10031;SDS011;5056;44.272;19.892;2023-02-28T02:17:05;71.03;;;44.10;;
10031;SDS011;5056;44.272;19.892;2023-02-28T02:26:06;79.90;;;45.10;;
10031;SDS011;5056;44.272;19.892;2023-02-28T02:29:06;71.73;;;44.57;;
10031;SDS011;5056;44.272;19.892;2023-02-28T02:34:47;64.10;;;38.97;;
10031;SDS011;5056;44.272;19.892;2023-02-28T02:40:04;69.10;;;42.70;;
10031;SDS011;5056;44.272;19.892;2023-02-28T02:42:40;70.50;;;40.13;;
10031;SDS011;5056;44.272;19.892;2023-02-28T02:45:12;64.10;;;41.20;;
10031;SDS011;5056;44.272;19.892;2023-02-28T02:47:46;63.13;;;40.07;;
10031;SDS011;5056;44.272;19.892;2023-02-28T02:50:17;62.23;;;39.63;;
10031;SDS011;5056;44.272;19.892;2023-02-28T02:52:47;65.57;;;42.70;;
10031;SDS011;5056;44.272;19.892;2023-02-28T02:55:18;73.10;;;42.97;;
10031;SDS011;5056;44.272;19.892;2023-02-28T02:57:51;67.93;;;42.33;;
10031;SDS011;5056;44.272;19.892;2023-02-28T03:00:23;68.13;;;42.20;;
10031;SDS011;5056;44.272;19.892;2023-02-28T03:02:52;72.70;;;40.83;;
10031;SDS011;5056;44.272;19.892;2023-02-28T03:05:25;66.53;;;42.23;;
10031;SDS011;5056;44.272;19.892;2023-02-28T03:07:53;56.27;;;39.27;;
10031;SDS011;5056;44.272;19.892;2023-02-28T03:10:31;44.17;;;30.43;;
10031;SDS011;5056;44.272;19.892;2023-02-28T03:13:03;45.07;;;30.53;;
10031;SDS011;5056;44.272;19.892;2023-02-28T03:16:10;46.50;;;29.47;;
10031;SDS011;5056;44.272;19.892;2023-02-28T03:19:12;45.50;;;30.93;;
10031;SDS011;5056;44.272;19.892;2023-02-28T03:21:56;51.97;;;32.30;;
10031;SDS011;5056;44.272;19.892;2023-02-28T03:24:31;48.27;;;31.97;;
10031;SDS011;5056;44.272;19.892;2023-02-28T03:27:03;41.90;;;26.33;;
10031;SDS011;5056;44.272;19.892;2023-02-28T03:29:34;44.57;;;27.73;;
10031;SDS011;5056;44.272;19.892;2023-02-28T03:32:04;38.17;;;26.77;;
10031;SDS011;5056;44.272;19.892;2023-02-28T03:34:37;40.83;;;27.33;;
10031;SDS011;5056;44.272;19.892;2023-02-28T03:37:22;42.83;;;29.37;;
10031;SDS011;5056;44.272;19.892;2023-02-28T03:39:53;41.40;;;26.30;;
10031;SDS011;5056;44.272;19.892;2023-02-28T03:42:22;41.40;;;26.77;;
10031;SDS011;5056;44.272;19.892;2023-02-28T03:44:52;40.17;;;27.13;;
10031;SDS011;5056;44.272;19.892;2023-02-28T03:47:23;40.40;;;26.13;;
10031;SDS011;5056;44.272;19.892;2023-02-28T03:49:53;38.20;;;24.77;;
10031;SDS011;5056;44.272;19.892;2023-02-28T03:52:26;37.07;;;25.37;;
10031;SDS011;5056;44.272;19.892;2023-02-28T03:54:55;27.33;;;20.90;;
10031;SDS011;5056;44.272;19.892;2023-02-28T03:57:27;31.03;;;21.97;;
10031;SDS011;5056;44.272;19.892;2023-02-28T03:59:59;26.87;;;20.40;;
10031;SDS011;5056;44.272;19.892;2023-02-28T04:02:31;32.13;;;22.07;;
10031;SDS011;5056;44.272;19.892;2023-02-28T04:04:59;27.30;;;19.97;;
10031;SDS011;5056;44.272;19.892;2023-02-28T04:07:30;29.87;;;21.07;;
10031;SDS011;5056;44.272;19.892;2023-02-28T04:09:58;26.87;;;19.57;;
10031;SDS011;5056;44.272;19.892;2023-02-28T04:12:25;26.83;;;19.47;;
10031;SDS011;5056;44.272;19.892;2023-02-28T04:14:52;28.03;;;20.13;;
10031;SDS011;5056;44.272;19.892;2023-02-28T04:17:21;27.93;;;20.57;;
10031;SDS011;5056;44.272;19.892;2023-02-28T04:19:48;28.07;;;20.07;;
10031;SDS011;5056;44.272;19.892;2023-02-28T04:22:22;26.77;;;19.40;;
10031;SDS011;5056;44.272;19.892;2023-02-28T04:24:53;30.57;;;21.00;;
10031;SDS011;5056;44.272;19.892;2023-02-28T04:27:19;31.53;;;22.57;;
10031;SDS011;5056;44.272;19.892;2023-02-28T04:29:46;39.90;;;23.60;;
10031;SDS011;5056;44.272;19.892;2023-02-28T04:32:13;34.80;;;22.83;;
10031;SDS011;5056;44.272;19.892;2023-02-28T04:34:40;37.33;;;23.80;;
10031;SDS011;5056;44.272;19.892;2023-02-28T04:37:07;31.47;;;22.07;;
10031;SDS011;5056;44.272;19.892;2023-02-28T04:39:34;31.27;;;22.13;;
10031;SDS011;5056;44.272;19.892;2023-02-28T04:42:03;31.03;;;21.50;;
10031;SDS011;5056;44.272;19.892;2023-02-28T04:44:30;32.30;;;20.67;;
10031;SDS011;5056;44.272;19.892;2023-02-28T04:46:57;29.17;;;20.93;;
10031;SDS011;5056;44.272;19.892;2023-02-28T04:49:24;28.30;;;20.30;;
10031;SDS011;5056;44.272;19.892;2023-02-28T04:51:51;30.37;;;22.03;;
10031;SDS011;5056;44.272;19.892;2023-02-28T04:54:18;30.43;;;22.40;;
10031;SDS011;5056;44.272;19.892;2023-02-28T04:56:44;32.03;;;22.40;;
10031;SDS011;5056;44.272;19.892;2023-02-28T04:59:14;28.93;;;20.47;;
10031;SDS011;5056;44.272;19.892;2023-02-28T05:01:45;31.50;;;22.10;;
10031;SDS011;5056;44.272;19.892;2023-02-28T05:04:22;29.83;;;21.67;;
10031;SDS011;5056;44.272;19.892;2023-02-28T05:06:49;33.13;;;22.40;;
10031;SDS011;5056;44.272;19.892;2023-02-28T05:09:15;30.13;;;20.87;;
10031;SDS011;5056;44.272;19.892;2023-02-28T05:11:42;28.40;;;21.37;;
10031;SDS011;5056;44.272;19.892;2023-02-28T05:17:08;27.93;;;20.70;;
10031;SDS011;5056;44.272;19.892;2023-02-28T05:19:34;29.60;;;21.57;;
10031;SDS011;5056;44.272;19.892;2023-02-28T05:22:02;29.53;;;21.13;;
10031;SDS011;5056;44.272;19.892;2023-02-28T05:24:39;32.03;;;23.20;;
10031;SDS011;5056;44.272;19.892;2023-02-28T05:27:07;28.80;;;20.70;;
10031;SDS011;5056;44.272;19.892;2023-02-28T05:29:35;36.00;;;25.57;;
10031;SDS011;5056;44.272;19.892;2023-02-28T05:32:09;41.47;;;26.10;;
10031;SDS011;5056;44.272;19.892;2023-02-28T05:34:36;36.63;;;24.00;;
10031;SDS011;5056;44.272;19.892;2023-02-28T05:37:03;34.57;;;23.57;;
10031;SDS011;5056;44.272;19.892;2023-02-28T05:39:30;29.43;;;21.57;;
10031;SDS011;5056;44.272;19.892;2023-02-28T05:42:00;29.30;;;21.07;;
10031;SDS011;5056;44.272;19.892;2023-02-28T05:44:27;35.87;;;21.47;;
10031;SDS011;5056;44.272;19.892;2023-02-28T05:46:54;27.13;;;19.37;;
10031;SDS011;5056;44.272;19.892;2023-02-28T05:49:22;29.80;;;20.23;;
10031;SDS011;5056;44.272;19.892;2023-02-28T05:51:49;31.10;;;22.33;;
10031;SDS011;5056;44.272;19.892;2023-02-28T05:54:16;32.93;;;22.40;;
10031;SDS011;5056;44.272;19.892;2023-02-28T05:56:42;37.67;;;24.77;;
10031;SDS011;5056;44.272;19.892;2023-02-28T05:59:16;36.17;;;24.27;;
10031;SDS011;5056;44.272;19.892;2023-02-28T06:01:44;33.00;;;22.33;;
10031;SDS011;5056;44.272;19.892;2023-02-28T06:04:13;37.60;;;24.90;;
10031;SDS011;5056;44.272;19.892;2023-02-28T06:06:57;39.80;;;26.23;;
10031;SDS011;5056;44.272;19.892;2023-02-28T06:09:24;37.37;;;25.53;;
10031;SDS011;5056;44.272;19.892;2023-02-28T06:11:51;39.30;;;25.60;;
10031;SDS011;5056;44.272;19.892;2023-02-28T06:14:19;41.37;;;26.20;;
10031;SDS011;5056;44.272;19.892;2023-02-28T06:16:46;39.90;;;24.57;;
10031;SDS011;5056;44.272;19.892;2023-02-28T06:19:13;36.70;;;24.60;;
10031;SDS011;5056;44.272;19.892;2023-02-28T06:21:41;39.47;;;26.27;;
10031;SDS011;5056;44.272;19.892;2023-02-28T06:24:18;38.53;;;25.07;;
10031;SDS011;5056;44.272;19.892;2023-02-28T06:26:45;35.60;;;23.87;;
10031;SDS011;5056;44.272;19.892;2023-02-28T06:29:12;39.40;;;26.30;;
10031;SDS011;5056;44.272;19.892;2023-02-28T06:34:35;49.43;;;30.40;;
10031;SDS011;5056;44.272;19.892;2023-02-28T06:37:03;58.87;;;37.70;;
10031;SDS011;5056;44.272;19.892;2023-02-28T06:39:32;48.10;;;31.87;;
10031;SDS011;5056;44.272;19.892;2023-02-28T06:41:59;48.73;;;32.07;;
10031;SDS011;5056;44.272;19.892;2023-02-28T06:44:27;50.10;;;32.23;;
10031;SDS011;5056;44.272;19.892;2023-02-28T06:47:03;44.57;;;29.17;;
10031;SDS011;5056;44.272;19.892;2023-02-28T06:49:33;40.43;;;27.50;;
10031;SDS011;5056;44.272;19.892;2023-02-28T06:52:01;39.13;;;25.57;;
10031;SDS011;5056;44.272;19.892;2023-02-28T06:54:28;35.83;;;24.10;;
10031;SDS011;5056;44.272;19.892;2023-02-28T06:56:57;35.63;;;23.20;;
10031;SDS011;5056;44.272;19.892;2023-02-28T06:59:26;44.33;;;26.33;;
10031;SDS011;5056;44.272;19.892;2023-02-28T07:01:53;37.60;;;24.40;;
10031;SDS011;5056;44.272;19.892;2023-02-28T07:04:21;38.77;;;24.10;;
10031;SDS011;5056;44.272;19.892;2023-02-28T07:06:48;50.00;;;30.03;;
10031;SDS011;5056;44.272;19.892;2023-02-28T07:09:25;50.47;;;35.70;;
10031;SDS011;5056;44.272;19.892;2023-02-28T07:11:54;85.43;;;46.67;;
10031;SDS011;5056;44.272;19.892;2023-02-28T07:14:25;146.93;;;71.13;;
10031;SDS011;5056;44.272;19.892;2023-02-28T07:16:55;131.90;;;61.63;;
10031;SDS011;5056;44.272;19.892;2023-02-28T07:19:26;103.77;;;49.60;;
10031;SDS011;5056;44.272;19.892;2023-02-28T07:21:56;61.77;;;35.77;;
10031;SDS011;5056;44.272;19.892;2023-02-28T07:24:43;46.03;;;28.63;;
10031;SDS011;5056;44.272;19.892;2023-02-28T07:27:14;42.33;;;27.20;;
10031;SDS011;5056;44.272;19.892;2023-02-28T07:29:49;40.40;;;25.17;;
10031;SDS011;5056;44.272;19.892;2023-02-28T07:32:17;55.93;;;35.10;;
10031;SDS011;5056;44.272;19.892;2023-02-28T07:34:45;69.77;;;40.83;;
10031;SDS011;5056;44.272;19.892;2023-02-28T07:37:24;94.23;;;56.97;;
10031;SDS011;5056;44.272;19.892;2023-02-28T07:40:01;56.10;;;36.17;;
10031;SDS011;5056;44.272;19.892;2023-02-28T07:42:32;42.83;;;26.80;;
10031;SDS011;5056;44.272;19.892;2023-02-28T07:45:00;54.53;;;31.80;;
10031;SDS011;5056;44.272;19.892;2023-02-28T07:47:28;45.90;;;28.23;;
10031;SDS011;5056;44.272;19.892;2023-02-28T07:49:56;38.60;;;24.57;;
10031;SDS011;5056;44.272;19.892;2023-02-28T07:52:23;42.50;;;26.37;;
10031;SDS011;5056;44.272;19.892;2023-02-28T07:54:52;48.63;;;30.47;;
10031;SDS011;5056;44.272;19.892;2023-02-28T07:57:20;50.40;;;33.17;;
10031;SDS011;5056;44.272;19.892;2023-02-28T07:59:51;38.80;;;26.77;;
10031;SDS011;5056;44.272;19.892;2023-02-28T08:02:22;42.83;;;28.03;;
10031;SDS011;5056;44.272;19.892;2023-02-28T08:04:50;48.03;;;32.63;;
10031;SDS011;5056;44.272;19.892;2023-02-28T08:07:17;40.57;;;27.17;;
10031;SDS011;5056;44.272;19.892;2023-02-28T08:09:48;40.87;;;25.53;;
10031;SDS011;5056;44.272;19.892;2023-02-28T08:12:18;41.97;;;26.80;;
10031;SDS011;5056;44.272;19.892;2023-02-28T08:14:50;40.70;;;24.73;;
10031;SDS011;5056;44.272;19.892;2023-02-28T08:17:18;42.73;;;25.77;;
10031;SDS011;5056;44.272;19.892;2023-02-28T08:19:45;44.73;;;28.03;;
10031;SDS011;5056;44.272;19.892;2023-02-28T08:22:15;51.43;;;32.83;;
10031;SDS011;5056;44.272;19.892;2023-02-28T08:24:42;57.77;;;34.67;;
10031;SDS011;5056;44.272;19.892;2023-02-28T08:27:12;49.80;;;31.93;;
10031;SDS011;5056;44.272;19.892;2023-02-28T08:32:29;48.47;;;31.30;;
10031;SDS011;5056;44.272;19.892;2023-02-28T08:34:57;49.53;;;29.00;;
10031;SDS011;5056;44.272;19.892;2023-02-28T08:37:23;52.17;;;30.80;;
10031;SDS011;5056;44.272;19.892;2023-02-28T08:39:50;65.77;;;38.93;;
10031;SDS011;5056;44.272;19.892;2023-02-28T08:42:20;86.47;;;46.90;;
10031;SDS011;5056;44.272;19.892;2023-02-28T08:44:47;70.57;;;43.67;;
10031;SDS011;5056;44.272;19.892;2023-02-28T08:47:17;99.43;;;57.37;;
10031;SDS011;5056;44.272;19.892;2023-02-28T08:49:44;95.33;;;56.87;;
10031;SDS011;5056;44.272;19.892;2023-02-28T08:52:13;85.27;;;51.00;;
10031;SDS011;5056;44.272;19.892;2023-02-28T08:54:40;67.47;;;42.37;;
10031;SDS011;5056;44.272;19.892;2023-02-28T08:57:08;73.17;;;43.97;;
10031;SDS011;5056;44.272;19.892;2023-02-28T08:59:36;80.37;;;45.27;;
10031;SDS011;5056;44.272;19.892;2023-02-28T09:02:03;75.77;;;45.30;;
10031;SDS011;5056;44.272;19.892;2023-02-28T09:04:34;81.27;;;46.40;;
10031;SDS011;5056;44.272;19.892;2023-02-28T09:07:18;83.43;;;47.93;;
10031;SDS011;5056;44.272;19.892;2023-02-28T09:09:53;80.27;;;46.20;;
10031;SDS011;5056;44.272;19.892;2023-02-28T09:12:23;92.47;;;52.37;;
10031;SDS011;5056;44.272;19.892;2023-02-28T09:14:53;90.70;;;51.90;;
10031;SDS011;5056;44.272;19.892;2023-02-28T09:17:21;75.13;;;45.47;;
10031;SDS011;5056;44.272;19.892;2023-02-28T09:19:52;85.33;;;48.50;;
10031;SDS011;5056;44.272;19.892;2023-02-28T09:22:19;82.37;;;50.63;;
10031;SDS011;5056;44.272;19.892;2023-02-28T09:24:46;70.10;;;42.40;;
10031;SDS011;5056;44.272;19.892;2023-02-28T09:27:25;72.97;;;43.80;;
10031;SDS011;5056;44.272;19.892;2023-02-28T09:29:52;90.07;;;52.57;;
10031;SDS011;5056;44.272;19.892;2023-02-28T09:32:20;97.37;;;57.37;;
10031;SDS011;5056;44.272;19.892;2023-02-28T09:34:56;71.43;;;45.37;;
10031;SDS011;5056;44.272;19.892;2023-02-28T09:37:24;74.63;;;43.47;;
10031;SDS011;5056;44.272;19.892;2023-02-28T09:39:54;66.00;;;41.13;;
10031;SDS011;5056;44.272;19.892;2023-02-28T09:42:22;72.03;;;46.87;;
10031;SDS011;5056;44.272;19.892;2023-02-28T09:44:54;72.07;;;41.80;;
10031;SDS011;5056;44.272;19.892;2023-02-28T09:47:25;69.23;;;41.73;;
10031;SDS011;5056;44.272;19.892;2023-02-28T09:49:56;61.50;;;36.13;;
10031;SDS011;5056;44.272;19.892;2023-02-28T09:52:27;67.13;;;41.00;;
10031;SDS011;5056;44.272;19.892;2023-02-28T09:54:56;63.67;;;38.10;;
10031;SDS011;5056;44.272;19.892;2023-02-28T09:57:32;78.27;;;43.77;;
10031;SDS011;5056;44.272;19.892;2023-02-28T10:00:05;83.87;;;45.90;;
10031;SDS011;5056;44.272;19.892;2023-02-28T10:05:50;81.20;;;45.23;;
10031;SDS011;5056;44.272;19.892;2023-02-28T10:08:20;100.43;;;54.40;;
10031;SDS011;5056;44.272;19.892;2023-02-28T10:10:51;66.63;;;39.47;;
10031;SDS011;5056;44.272;19.892;2023-02-28T10:13:23;72.23;;;41.97;;
10031;SDS011;5056;44.272;19.892;2023-02-28T10:15:55;69.10;;;40.50;;
10031;SDS011;5056;44.272;19.892;2023-02-28T10:18:25;76.53;;;44.20;;
10031;SDS011;5056;44.272;19.892;2023-02-28T10:20:56;74.63;;;41.30;;
10031;SDS011;5056;44.272;19.892;2023-02-28T10:23:27;72.17;;;40.83;;
10031;SDS011;5056;44.272;19.892;2023-02-28T10:26:01;75.60;;;39.40;;
10031;SDS011;5056;44.272;19.892;2023-02-28T10:28:35;79.73;;;47.63;;
10031;SDS011;5056;44.272;19.892;2023-02-28T10:31:02;65.60;;;38.00;;
10031;SDS011;5056;44.272;19.892;2023-02-28T10:33:30;66.73;;;40.40;;
10031;SDS011;5056;44.272;19.892;2023-02-28T10:36:03;59.13;;;35.63;;
10031;SDS011;5056;44.272;19.892;2023-02-28T10:38:36;55.33;;;34.13;;
10031;SDS011;5056;44.272;19.892;2023-02-28T10:41:06;70.07;;;39.13;;
10031;SDS011;5056;44.272;19.892;2023-02-28T10:43:36;62.23;;;38.17;;
10031;SDS011;5056;44.272;19.892;2023-02-28T10:46:04;66.33;;;37.90;;
10031;SDS011;5056;44.272;19.892;2023-02-28T10:48:41;48.77;;;30.50;;
10031;SDS011;5056;44.272;19.892;2023-02-28T10:51:12;41.77;;;29.23;;
10031;SDS011;5056;44.272;19.892;2023-02-28T10:53:45;40.43;;;24.63;;
10031;SDS011;5056;44.272;19.892;2023-02-28T10:56:17;41.60;;;28.37;;
10031;SDS011;5056;44.272;19.892;2023-02-28T10:58:57;34.63;;;26.17;;
10031;SDS011;5056;44.272;19.892;2023-02-28T11:01:33;41.27;;;27.63;;
10031;SDS011;5056;44.272;19.892;2023-02-28T11:04:03;31.20;;;21.97;;
10031;SDS011;5056;44.272;19.892;2023-02-28T11:06:34;40.93;;;26.53;;
10031;SDS011;5056;44.272;19.892;2023-02-28T11:09:03;42.00;;;28.37;;
10031;SDS011;5056;44.272;19.892;2023-02-28T11:11:31;43.30;;;30.20;;
10031;SDS011;5056;44.272;19.892;2023-02-28T11:14:15;55.80;;;32.53;;
10031;SDS011;5056;44.272;19.892;2023-02-28T11:16:47;49.53;;;32.03;;
10031;SDS011;5056;44.272;19.892;2023-02-28T11:19:17;50.50;;;32.63;;
10031;SDS011;5056;44.272;19.892;2023-02-28T11:24:23;74.13;;;45.90;;
10031;SDS011;5056;44.272;19.892;2023-02-28T11:26:52;66.73;;;44.03;;
10031;SDS011;5056;44.272;19.892;2023-02-28T11:29:21;45.70;;;27.63;;
10031;SDS011;5056;44.272;19.892;2023-02-28T11:35:02;44.47;;;28.00;;
10031;SDS011;5056;44.272;19.892;2023-02-28T11:37:32;45.03;;;27.33;;
10031;SDS011;5056;44.272;19.892;2023-02-28T11:40:00;50.57;;;33.47;;
10031;SDS011;5056;44.272;19.892;2023-02-28T11:42:37;54.70;;;33.93;;
10031;SDS011;5056;44.272;19.892;2023-02-28T11:45:19;44.73;;;31.33;;
10031;SDS011;5056;44.272;19.892;2023-02-28T11:47:53;56.50;;;35.93;;
10031;SDS011;5056;44.272;19.892;2023-02-28T11:50:32;44.13;;;28.70;;
10031;SDS011;5056;44.272;19.892;2023-02-28T11:53:14;29.53;;;20.40;;
10031;SDS011;5056;44.272;19.892;2023-02-28T11:55:46;40.47;;;27.60;;
10031;SDS011;5056;44.272;19.892;2023-02-28T11:58:22;43.83;;;25.50;;
10031;SDS011;5056;44.272;19.892;2023-02-28T12:01:03;40.93;;;26.27;;
10031;SDS011;5056;44.272;19.892;2023-02-28T12:03:39;36.07;;;23.67;;
10031;SDS011;5056;44.272;19.892;2023-02-28T12:06:15;40.10;;;31.80;;
10031;SDS011;5056;44.272;19.892;2023-02-28T12:08:49;25.50;;;20.57;;
10031;SDS011;5056;44.272;19.892;2023-02-28T12:11:25;26.97;;;19.30;;
10031;SDS011;5056;44.272;19.892;2023-02-28T12:14:06;28.00;;;19.13;;
10031;SDS011;5056;44.272;19.892;2023-02-28T12:16:47;27.17;;;19.10;;
10031;SDS011;5056;44.272;19.892;2023-02-28T12:19:21;29.40;;;20.93;;
10031;SDS011;5056;44.272;19.892;2023-02-28T12:21:58;35.47;;;22.77;;
10031;SDS011;5056;44.272;19.892;2023-02-28T12:24:39;28.10;;;19.93;;
10031;SDS011;5056;44.272;19.892;2023-02-28T12:27:23;44.37;;;28.63;;
10031;SDS011;5056;44.272;19.892;2023-02-28T12:29:52;40.33;;;25.93;;
10031;SDS011;5056;44.272;19.892;2023-02-28T12:32:23;49.60;;;29.17;;
10031;SDS011;5056;44.272;19.892;2023-02-28T12:34:55;44.27;;;29.90;;
10031;SDS011;5056;44.272;19.892;2023-02-28T12:37:25;62.83;;;41.70;;
10031;SDS011;5056;44.272;19.892;2023-02-28T12:39:59;45.57;;;32.33;;
10031;SDS011;5056;44.272;19.892;2023-02-28T12:42:31;48.93;;;36.90;;
10031;SDS011;5056;44.272;19.892;2023-02-28T12:45:01;48.90;;;31.20;;
10031;SDS011;5056;44.272;19.892;2023-02-28T12:47:31;52.07;;;31.43;;
10031;SDS011;5056;44.272;19.892;2023-02-28T12:49:59;39.63;;;27.87;;
10031;SDS011;5056;44.272;19.892;2023-02-28T12:52:31;38.67;;;27.13;;
10031;SDS011;5056;44.272;19.892;2023-02-28T12:55:14;38.97;;;27.13;;
10031;SDS011;5056;44.272;19.892;2023-02-28T12:57:45;53.87;;;33.00;;
10031;SDS011;5056;44.272;19.892;2023-02-28T13:00:20;37.47;;;25.27;;
10031;SDS011;5056;44.272;19.892;2023-02-28T13:03:32;50.43;;;31.33;;
10031;SDS011;5056;44.272;19.892;2023-02-28T13:06:16;48.93;;;31.37;;
10031;SDS011;5056;44.272;19.892;2023-02-28T13:08:59;48.67;;;30.77;;
10031;SDS011;5056;44.272;19.892;2023-02-28T13:14:27;37.07;;;23.80;;
10031;SDS011;5056;44.272;19.892;2023-02-28T13:16:57;37.13;;;25.77;;
10031;SDS011;5056;44.272;19.892;2023-02-28T13:19:26;38.27;;;24.43;;
10031;SDS011;5056;44.272;19.892;2023-02-28T13:21:55;40.73;;;24.20;;
10031;SDS011;5056;44.272;19.892;2023-02-28T13:31:03;41.63;;;28.93;;
10031;SDS011;5056;44.272;19.892;2023-02-28T13:33:21;36.93;;;23.17;;
10031;SDS011;5056;44.272;19.892;2023-02-28T13:35:58;34.43;;;23.27;;
10031;SDS011;5056;44.272;19.892;2023-02-28T13:38:36;32.50;;;23.07;;
10031;SDS011;5056;44.272;19.892;2023-02-28T13:44:16;40.70;;;26.43;;
10031;SDS011;5056;44.272;19.892;2023-02-28T13:49:51;33.30;;;24.50;;
10031;SDS011;5056;44.272;19.892;2023-02-28T13:52:19;38.47;;;24.07;;
10031;SDS011;5056;44.272;19.892;2023-02-28T13:54:51;37.33;;;25.67;;
10031;SDS011;5056;44.272;19.892;2023-02-28T13:57:25;43.20;;;29.27;;
10031;SDS011;5056;44.272;19.892;2023-02-28T14:00:06;39.30;;;26.83;;
10031;SDS011;5056;44.272;19.892;2023-02-28T14:02:55;40.43;;;27.73;;
10031;SDS011;5056;44.272;19.892;2023-02-28T14:05:41;40.80;;;28.53;;
10031;SDS011;5056;44.272;19.892;2023-02-28T14:08:12;38.83;;;23.33;;
10031;SDS011;5056;44.272;19.892;2023-02-28T14:10:42;45.47;;;34.30;;
10031;SDS011;5056;44.272;19.892;2023-02-28T14:13:13;45.73;;;26.63;;
10031;SDS011;5056;44.272;19.892;2023-02-28T14:16:06;37.60;;;23.70;;
10031;SDS011;5056;44.272;19.892;2023-02-28T14:18:34;111.13;;;79.03;;
10031;SDS011;5056;44.272;19.892;2023-02-28T14:21:09;37.17;;;23.17;;
10031;SDS011;5056;44.272;19.892;2023-02-28T14:26:49;65.77;;;52.50;;
10031;SDS011;5056;44.272;19.892;2023-02-28T14:29:50;57.57;;;42.33;;
10031;SDS011;5056;44.272;19.892;2023-02-28T14:32:35;48.13;;;34.57;;
10031;SDS011;5056;44.272;19.892;2023-02-28T14:35:13;56.43;;;40.93;;
10031;SDS011;5056;44.272;19.892;2023-02-28T14:37:46;46.50;;;32.40;;
10031;SDS011;5056;44.272;19.892;2023-02-28T14:40:14;49.27;;;36.30;;
10031;SDS011;5056;44.272;19.892;2023-02-28T14:42:57;37.50;;;22.63;;
10031;SDS011;5056;44.272;19.892;2023-02-28T14:45:25;41.13;;;31.30;;
10031;SDS011;5056;44.272;19.892;2023-02-28T14:47:55;36.60;;;24.63;;
10031;SDS011;5056;44.272;19.892;2023-02-28T14:50:23;30.77;;;22.53;;
10031;SDS011;5056;44.272;19.892;2023-02-28T14:53:09;42.37;;;27.50;;
10031;SDS011;5056;44.272;19.892;2023-02-28T14:55:47;36.33;;;22.97;;
10031;SDS011;5056;44.272;19.892;2023-02-28T14:58:20;37.83;;;25.73;;
10031;SDS011;5056;44.272;19.892;2023-02-28T15:00:52;95.37;;;80.73;;
10031;SDS011;5056;44.272;19.892;2023-02-28T15:03:31;56.90;;;47.67;;
10031;SDS011;5056;44.272;19.892;2023-02-28T15:06:02;46.40;;;30.73;;
10031;SDS011;5056;44.272;19.892;2023-02-28T15:08:32;40.97;;;26.47;;
10031;SDS011;5056;44.272;19.892;2023-02-28T15:11:02;54.17;;;31.40;;
10031;SDS011;5056;44.272;19.892;2023-02-28T15:13:36;58.70;;;33.83;;
10031;SDS011;5056;44.272;19.892;2023-02-28T15:16:07;54.30;;;34.03;;
10031;SDS011;5056;44.272;19.892;2023-02-28T15:18:41;68.00;;;40.67;;
10031;SDS011;5056;44.272;19.892;2023-02-28T15:21:11;59.03;;;36.93;;
10031;SDS011;5056;44.272;19.892;2023-02-28T15:23:39;52.60;;;31.40;;
10031;SDS011;5056;44.272;19.892;2023-02-28T15:26:09;53.83;;;30.33;;
10031;SDS011;5056;44.272;19.892;2023-02-28T15:28:38;41.40;;;27.23;;
10031;SDS011;5056;44.272;19.892;2023-02-28T15:31:17;38.60;;;27.43;;
10031;SDS011;5056;44.272;19.892;2023-02-28T15:33:54;39.67;;;23.30;;